createdAt,value
2024-03-22T00:00:03.450Z,100269.84
2024-03-22T00:02:40.153Z,100267.34
2024-03-22T00:05:07.907Z,100267.29
2024-03-22T00:07:34.991Z,100271.89
2024-03-22T00:10:02.371Z,100270.47
2024-03-22T00:12:29.651Z,100276.19
2024-03-22T00:14:57.177Z,100275.59
2024-03-22T00:17:24.129Z,100278.50
2024-03-22T00:19:50.997Z,100275.52
2024-03-22T00:22:17.805Z,100273.98
2024-03-22T00:24:44.726Z,100267.61
2024-03-22T00:27:12.959Z,100270.30
2024-03-22T00:29:39.777Z,100271.45
2024-03-22T00:32:08.620Z,100265.75
2024-03-22T00:34:35.904Z,100265.23
2024-03-22T00:37:02.992Z,100266.06
2024-03-22T00:39:30.141Z,100270.42
2024-03-22T00:41:57.090Z,100268.80
2024-03-22T00:44:24.032Z,100267.31
2024-03-22T00:46:51.058Z,100265.09
2024-03-22T00:49:17.894Z,100262.27
2024-03-22T00:51:45.938Z,100264.52
2024-03-22T00:54:12.819Z,100264.77
2024-03-22T00:56:39.717Z,100260.79
2024-03-22T00:59:07.922Z,100259.45
2024-03-22T01:01:34.819Z,100255.05
2024-03-22T01:04:01.969Z,100257.73
2024-03-22T01:06:28.996Z,100260.08
2024-03-22T01:08:56.067Z,100259.10
2024-03-22T01:11:23.061Z,100251.91
2024-03-22T01:13:49.918Z,100248.71
2024-03-22T01:16:17.733Z,100238.63
2024-03-22T01:18:44.700Z,100245.82
2024-03-22T01:21:11.535Z,100247.20
2024-03-22T01:23:38.689Z,100246.93
2024-03-22T01:26:05.503Z,100247.27
2024-03-22T01:28:32.400Z,100244.92
2024-03-22T01:30:59.269Z,100243.55
2024-03-22T01:33:26.153Z,100239.77
2024-03-22T01:35:52.974Z,100240.50
2024-03-22T01:38:20.019Z,100240.45
2024-03-22T01:40:47.008Z,100241.56
2024-03-22T01:43:14.010Z,100237.45
2024-03-22T01:45:41.120Z,100239.69
2024-03-22T01:48:08.483Z,100236.29
2024-03-22T01:50:35.326Z,100236.48
2024-03-22T01:53:02.256Z,100234.63
2024-03-22T01:55:30.639Z,100234.71
2024-03-22T01:57:57.419Z,100232.81
2024-03-22T02:00:24.518Z,100232.56
2024-03-22T02:02:51.549Z,100233.95
2024-03-22T02:05:22.371Z,100231.23
2024-03-22T02:07:49.315Z,100231.60
2024-03-22T02:10:17.156Z,100233.17
2024-03-22T02:12:44.104Z,100233.47
2024-03-22T02:15:11.365Z,100235.36
2024-03-22T02:17:38.479Z,100236.61
2024-03-22T02:20:06.059Z,100238.49
2024-03-22T02:22:33.191Z,100236.66
2024-03-22T02:25:00.304Z,100234.85
2024-03-22T02:27:27.284Z,100237.02
2024-03-22T02:29:54.185Z,100238.17
2024-03-22T02:34:51.001Z,100236.67
